Time;durP1;ratioP1;P1;durP2;ratioP2;P2;SDS_P1;SDS_P2;PMS_P1;PMS_P2;Temp;Humidity;BMP_temperature;BMP_pressure;BME280_temperature;BME280_humidity;BME280_pressure;Samples;Min_cycle;Max_cycle;Signal;HPM_P1;HPM_P2
2023/11/30 00:00:00;;;;;;;10.73;6.00;;;0.40;99.90;;;;;;5068797;28;20202;-80
2023/11/30 00:02:27;;;;;;;10.77;5.83;;;0.30;99.90;;;;;;5070118;28;20190;-79
2023/11/30 00:04:55;;;;;;;8.83;5.33;;;0.30;99.90;;;;;;5073560;28;20206;-80
2023/11/30 00:07:22;;;;;;;8.13;5.37;;;0.20;99.90;;;;;;5074736;28;21110;-79
2023/11/30 00:09:49;;;;;;;9.17;5.73;;;0.20;99.90;;;;;;5072767;28;20233;-78
2023/11/30 00:12:16;;;;;;;9.80;5.37;;;0.20;99.90;;;;;;5071108;28;20214;-79
2023/11/30 00:14:42;;;;;;;8.10;5.20;;;0.20;99.90;;;;;;5072325;28;20567;-80
2023/11/30 00:17:09;;;;;;;8.37;4.80;;;0.20;99.90;;;;;;5070596;28;20631;-79
2023/11/30 00:19:36;;;;;;;9.47;6.03;;;0.20;99.90;;;;;;5071784;28;20218;-77
2023/11/30 00:22:04;;;;;;;10.80;5.10;;;0.20;99.90;;;;;;5067167;28;20203;-78
2023/11/30 00:24:34;;;;;;;8.83;4.90;;;0.10;99.90;;;;;;5078322;28;20230;-78
2023/11/30 00:27:01;;;;;;;8.60;5.83;;;0.10;99.90;;;;;;5071516;28;20214;-79
2023/11/30 00:29:27;;;;;;;8.80;4.83;;;0.10;99.90;;;;;;5071366;28;20226;-78
2023/11/30 00:31:54;;;;;;;9.03;5.63;;;0.10;99.90;;;;;;5070010;28;20199;-78
2023/11/30 00:34:21;;;;;;;9.90;5.83;;;0.10;99.90;;;;;;5071930;28;20221;-78
2023/11/30 00:36:48;;;;;;;7.03;4.70;;;0.00;99.90;;;;;;5066939;28;20197;-78
2023/11/30 00:39:16;;;;;;;8.00;5.40;;;0.10;99.90;;;;;;5070422;28;20343;-79
2023/11/30 00:41:43;;;;;;;8.70;4.90;;;0.10;99.90;;;;;;5081849;28;20203;-79
2023/11/30 00:44:09;;;;;;;8.47;5.73;;;0.10;99.90;;;;;;5081144;28;20209;-79
2023/11/30 00:46:36;;;;;;;11.60;5.30;;;0.00;99.90;;;;;;5074620;28;20252;-79
2023/11/30 00:49:03;;;;;;;11.77;6.17;;;0.00;99.90;;;;;;5075643;28;20218;-79
2023/11/30 00:51:30;;;;;;;12.60;6.20;;;-0.10;99.90;;;;;;5077620;28;20207;-78
2023/11/30 00:53:57;;;;;;;12.83;6.57;;;-0.10;99.90;;;;;;5070825;28;20341;-77
2023/11/30 00:56:25;;;;;;;14.33;6.73;;;0.00;99.90;;;;;;5075852;28;20198;-78
2023/11/30 00:58:52;;;;;;;11.73;6.20;;;-0.10;99.90;;;;;;5074567;28;20227;-79
2023/11/30 01:01:18;;;;;;;10.93;6.23;;;0.00;99.90;;;;;;5073142;28;20206;-78
2023/11/30 01:03:45;;;;;;;11.57;6.63;;;0.00;99.90;;;;;;5072074;28;20212;-78
2023/11/30 01:06:12;;;;;;;11.30;6.60;;;0.00;99.90;;;;;;5074306;28;20275;-78
2023/11/30 01:08:39;;;;;;;16.43;7.93;;;0.00;99.90;;;;;;5069951;28;20228;-78
2023/11/30 01:11:06;;;;;;;14.30;8.07;;;0.00;99.90;;;;;;5069526;28;20205;-78
2023/11/30 01:13:34;;;;;;;15.40;8.17;;;0.10;99.90;;;;;;5070179;28;20210;-79
2023/11/30 01:16:01;;;;;;;15.37;9.43;;;0.00;99.90;;;;;;5067504;28;20195;-78
2023/11/30 01:18:28;;;;;;;13.67;8.23;;;-0.10;99.90;;;;;;5076799;28;20218;-78
2023/11/30 01:20:55;;;;;;;14.53;8.60;;;-0.10;99.90;;;;;;5074055;28;20245;-78
2023/11/30 01:23:21;;;;;;;13.03;8.17;;;-0.10;99.90;;;;;;5068073;28;20221;-79
2023/11/30 01:25:48;;;;;;;14.67;8.37;;;-0.20;99.90;;;;;;5063926;28;20215;-79
2023/11/30 01:28:15;;;;;;;14.03;7.83;;;-0.30;99.90;;;;;;5072321;28;20218;-78
2023/11/30 01:30:43;;;;;;;14.33;8.40;;;-0.30;99.90;;;;;;5068295;28;20202;-78
2023/11/30 01:33:10;;;;;;;14.73;8.47;;;-0.30;99.90;;;;;;5067677;28;20199;-78
2023/11/30 01:35:37;;;;;;;14.33;8.43;;;-0.40;99.90;;;;;;5068442;28;20201;-78
2023/11/30 01:38:03;;;;;;;12.33;7.63;;;-0.50;99.90;;;;;;5068850;28;20215;-78
2023/11/30 01:40:30;;;;;;;16.90;9.10;;;-0.70;99.90;;;;;;5070185;28;20216;-79
2023/11/30 01:42:57;;;;;;;15.33;8.57;;;-0.70;99.90;;;;;;5075205;28;20669;-77
2023/11/30 01:45:24;;;;;;;15.77;9.67;;;-0.80;99.90;;;;;;5078628;28;20201;-78
2023/11/30 01:47:53;;;;;;;15.10;8.70;;;-0.70;99.90;;;;;;5073266;28;20221;-78
2023/11/30 01:50:20;;;;;;;14.77;8.87;;;-0.90;99.90;;;;;;5073512;28;20402;-78
2023/11/30 01:52:47;;;;;;;17.23;10.07;;;-1.00;99.90;;;;;;5074842;28;20678;-78
2023/11/30 01:55:14;;;;;;;16.07;9.10;;;-1.10;99.90;;;;;;5070227;28;20208;-78
2023/11/30 01:57:42;;;;;;;14.70;8.77;;;-1.20;99.90;;;;;;5075614;28;20202;-78
2023/11/30 02:00:11;;;;;;;14.93;8.77;;;-1.30;99.90;;;;;;5074317;28;20225;-78
2023/11/30 02:02:38;;;;;;;15.17;8.53;;;-1.30;99.90;;;;;;5072499;28;20212;-78
2023/11/30 02:05:08;;;;;;;14.77;8.60;;;-1.40;99.90;;;;;;5072737;28;20203;-78
2023/11/30 02:07:35;;;;;;;15.90;8.67;;;-1.50;99.90;;;;;;5075260;28;20285;-78
2023/11/30 02:10:02;;;;;;;15.27;8.70;;;-1.50;99.90;;;;;;5070345;28;20199;-79
2023/11/30 02:12:28;;;;;;;14.20;8.43;;;-1.60;99.90;;;;;;5071862;28;20224;-79
2023/11/30 02:14:59;;;;;;;15.07;8.47;;;-1.60;99.90;;;;;;5071366;28;20218;-79
2023/11/30 02:17:25;;;;;;;13.80;8.23;;;-1.70;99.90;;;;;;5069760;28;20195;-78
2023/11/30 02:19:52;;;;;;;16.57;9.10;;;-1.60;99.90;;;;;;5066420;28;20226;-79
2023/11/30 02:22:20;;;;;;;14.73;8.30;;;-1.60;99.90;;;;;;5070512;28;20600;-78
2023/11/30 02:24:47;;;;;;;15.77;8.67;;;-1.70;99.90;;;;;;5066662;28;20198;-78
2023/11/30 02:27:14;;;;;;;14.73;8.83;;;-1.80;99.90;;;;;;5066233;28;20229;-78
2023/11/30 02:29:41;;;;;;;16.77;8.90;;;-1.70;99.90;;;;;;5068919;28;20227;-78
2023/11/30 02:32:08;;;;;;;14.47;8.60;;;-1.70;99.90;;;;;;5066975;28;20207;-77
2023/11/30 02:34:35;;;;;;;14.77;8.73;;;-1.60;99.90;;;;;;5069133;28;20214;-77
2023/11/30 02:37:02;;;;;;;15.30;9.13;;;-1.50;99.90;;;;;;5070204;28;20199;-78
2023/11/30 02:39:30;;;;;;;15.77;9.13;;;-1.30;99.90;;;;;;5067869;28;20218;-78
2023/11/30 02:41:57;;;;;;;15.13;8.60;;;-1.30;99.90;;;;;;5067674;28;20199;-78
2023/11/30 02:44:24;;;;;;;12.20;7.60;;;-1.20;99.90;;;;;;5067760;28;20480;-78
2023/11/30 02:46:50;;;;;;;14.57;8.87;;;-1.10;99.90;;;;;;5077378;28;20235;-78
2023/11/30 02:49:18;;;;;;;17.07;9.60;;;-1.00;99.90;;;;;;5075106;28;20214;-78
2023/11/30 02:51:44;;;;;;;17.40;9.53;;;-1.00;99.90;;;;;;5075194;28;20213;-78
2023/11/30 02:54:11;;;;;;;17.80;9.13;;;-0.90;99.90;;;;;;5075749;28;20196;-78
2023/11/30 02:56:42;;;;;;;16.63;8.90;;;-0.90;99.90;;;;;;5071920;28;20651;-79
2023/11/30 02:59:09;;;;;;;17.37;9.27;;;-0.80;99.90;;;;;;5074533;28;20281;-78
2023/11/30 03:01:43;;;;;;;16.70;9.60;;;-0.70;99.90;;;;;;5073995;28;20198;-78
2023/11/30 03:04:10;;;;;;;16.10;9.47;;;-0.80;99.90;;;;;;5075997;28;20206;-79
2023/11/30 03:06:37;;;;;;;16.63;9.70;;;-0.70;99.90;;;;;;5070228;28;20218;-79
2023/11/30 03:09:04;;;;;;;19.33;9.47;;;-0.70;99.90;;;;;;5067760;28;20215;-79
2023/11/30 03:11:31;;;;;;;16.47;9.47;;;-0.70;99.90;;;;;;5073376;28;20198;-79
2023/11/30 03:13:59;;;;;;;15.70;9.57;;;-0.70;99.90;;;;;;5068424;28;20214;-78
2023/11/30 03:16:27;;;;;;;17.50;9.67;;;-0.60;99.90;;;;;;5069386;28;20206;-79
2023/11/30 03:18:54;;;;;;;18.37;10.90;;;-0.60;99.90;;;;;;5066182;28;20620;-79
2023/11/30 03:21:21;;;;;;;17.57;9.63;;;-0.60;99.90;;;;;;5067572;28;20218;-79
2023/11/30 03:23:49;;;;;;;19.67;10.00;;;-0.60;99.90;;;;;;5067415;28;20213;-78
2023/11/30 03:26:17;;;;;;;15.40;9.10;;;-0.60;99.90;;;;;;5065405;28;20691;-78
2023/11/30 03:28:43;;;;;;;17.10;9.83;;;-0.70;99.90;;;;;;5068073;28;20229;-78
2023/11/30 03:31:12;;;;;;;18.57;9.80;;;-0.50;99.90;;;;;;5066759;28;20577;-78
2023/11/30 03:33:38;;;;;;;17.13;9.07;;;-0.50;99.90;;;;;;5071269;28;20198;-78
2023/11/30 03:36:06;;;;;;;16.73;9.70;;;-0.50;99.90;;;;;;5069039;28;20203;-79
2023/11/30 03:38:33;;;;;;;19.53;10.47;;;-0.50;99.90;;;;;;5072031;28;20215;-79
2023/11/30 03:40:59;;;;;;;22.03;10.83;;;-0.50;99.90;;;;;;5071520;28;20209;-79
2023/11/30 03:43:26;;;;;;;16.97;9.43;;;-0.50;99.90;;;;;;5070132;28;20233;-78
2023/11/30 03:45:53;;;;;;;19.20;10.27;;;-0.40;99.90;;;;;;5065234;28;21980;-78
2023/11/30 03:48:21;;;;;;;21.10;12.00;;;-0.50;99.90;;;;;;5073564;28;20249;-79
2023/11/30 03:50:48;;;;;;;19.17;9.13;;;-0.50;99.90;;;;;;5081167;28;20649;-79
2023/11/30 03:53:15;;;;;;;18.33;9.70;;;-0.50;99.90;;;;;;5075832;28;20194;-78
2023/11/30 03:55:42;;;;;;;18.90;9.73;;;-0.40;99.90;;;;;;5074867;28;20202;-79
2023/11/30 03:58:08;;;;;;;17.53;9.60;;;-0.40;99.90;;;;;;5073442;28;20214;-79
2023/11/30 04:00:35;;;;;;;17.93;9.93;;;-0.50;99.90;;;;;;5076723;28;20210;-79
2023/11/30 04:03:02;;;;;;;16.77;9.53;;;-0.60;99.90;;;;;;5072901;28;20202;-79
2023/11/30 04:05:30;;;;;;;17.90;10.80;;;-0.70;99.90;;;;;;5071611;28;20567;-78
2023/11/30 04:08:00;;;;;;;18.70;8.70;;;-0.60;99.90;;;;;;5068220;28;20233;-79
2023/11/30 04:10:27;;;;;;;15.47;9.03;;;-0.70;99.90;;;;;;5069102;28;20640;-79
2023/11/30 04:12:54;;;;;;;16.87;9.10;;;-0.80;99.90;;;;;;5073494;28;20214;-78
2023/11/30 04:15:21;;;;;;;17.90;9.87;;;-0.90;99.90;;;;;;5068328;28;20288;-78
2023/11/30 04:17:48;;;;;;;18.10;9.40;;;-0.90;99.90;;;;;;5065916;28;20654;-79
2023/11/30 04:20:15;;;;;;;17.40;9.33;;;-0.80;99.90;;;;;;5071743;28;20220;-78
2023/11/30 04:22:43;;;;;;;19.67;10.20;;;-1.00;99.90;;;;;;5070835;28;20302;-79
2023/11/30 04:25:10;;;;;;;16.47;9.20;;;-1.10;99.90;;;;;;5069739;28;20203;-78
2023/11/30 04:27:37;;;;;;;24.30;19.87;;;-1.20;99.90;;;;;;5069506;28;20226;-79
2023/11/30 04:30:04;;;;;;;18.63;9.97;;;-1.20;99.90;;;;;;5064948;28;20207;-80
2023/11/30 04:32:31;;;;;;;17.07;9.70;;;-1.20;99.90;;;;;;5067400;28;20203;-80
2023/11/30 04:34:58;;;;;;;17.70;10.23;;;-1.20;99.90;;;;;;5068869;28;20654;-79
2023/11/30 04:37:25;;;;;;;17.13;9.10;;;-1.30;99.90;;;;;;5069707;28;20195;-80
2023/11/30 04:39:53;;;;;;;18.90;9.70;;;-1.40;99.90;;;;;;5066794;28;20242;-79
2023/11/30 04:42:20;;;;;;;16.97;9.93;;;-1.50;99.90;;;;;;5066721;28;20198;-80
2023/11/30 04:44:48;;;;;;;18.27;9.50;;;-1.60;99.90;;;;;;5066639;28;20199;-80
2023/11/30 04:47:15;;;;;;;17.90;8.90;;;-1.50;99.90;;;;;;5066041;28;20597;-79
2023/11/30 04:49:42;;;;;;;27.33;7.57;;;-1.80;99.90;;;;;;5074208;28;20701;-79
2023/11/30 04:52:08;;;;;;;16.27;8.47;;;-2.40;1.00;;;;;;5077293;28;20204;-79
2023/11/30 04:54:35;;;;;;;16.93;9.97;;;-2.70;1.00;;;;;;5079435;28;20304;-79
2023/11/30 04:57:04;;;;;;;15.47;8.63;;;-2.70;1.00;;;;;;5077217;28;20205;-79
2023/11/30 04:59:31;;;;;;;19.87;11.23;;;-2.60;99.90;;;;;;5074370;28;20244;-79
2023/11/30 05:01:57;;;;;;;18.27;10.13;;;-2.90;1.00;;;;;;5073603;28;20630;-79
2023/11/30 05:04:24;;;;;;;18.40;9.87;;;-3.10;1.00;;;;;;5077826;28;20225;-79
2023/11/30 05:06:51;;;;;;;17.07;8.97;;;-2.80;99.90;;;;;;5072196;28;20236;-78
2023/11/30 05:09:18;;;;;;;19.40;10.60;;;-2.50;99.90;;;;;;5073679;28;20220;-78
2023/11/30 05:11:45;;;;;;;16.23;9.00;;;-2.40;99.90;;;;;;5078530;28;20222;-79
2023/11/30 05:14:13;;;;;;;18.93;9.43;;;-2.70;99.90;;;;;;5074611;28;20205;-79
2023/11/30 05:16:39;;;;;;;17.43;9.30;;;-2.70;99.90;;;;;;5073729;28;20286;-78
2023/11/30 05:19:06;;;;;;;18.23;9.77;;;-2.90;1.00;;;;;;5066341;28;20219;-79
2023/11/30 05:21:33;;;;;;;19.63;10.97;;;-2.80;93.80;;;;;;5071052;28;20693;-79
2023/11/30 05:24:00;;;;;;;20.40;11.27;;;-2.80;99.90;;;;;;5069908;28;20198;-81
2023/11/30 05:26:27;;;;;;;18.67;9.77;;;-2.70;99.90;;;;;;5069307;28;20224;-79
2023/11/30 05:28:53;;;;;;;17.90;9.97;;;-2.90;99.90;;;;;;5073472;28;20228;-80
2023/11/30 05:31:21;;;;;;;19.43;9.40;;;-3.30;1.00;;;;;;5075332;28;20205;-80
2023/11/30 05:33:48;;;;;;;19.87;10.57;;;-3.80;1.00;;;;;;5075289;28;20220;-78
2023/11/30 05:36:15;;;;;;;19.00;10.30;;;-3.80;1.00;;;;;;5072434;28;20558;-78
2023/11/30 05:38:42;;;;;;;19.17;10.93;;;-3.70;1.00;;;;;;5072065;28;20349;-78
2023/11/30 05:41:09;;;;;;;18.80;10.50;;;-3.30;99.90;;;;;;5066861;28;20651;-79
2023/11/30 05:43:35;;;;;;;19.53;10.90;;;-3.10;99.90;;;;;;5074423;28;20202;-79
2023/11/30 05:46:02;;;;;;;18.83;10.87;;;-3.20;99.90;;;;;;5072194;28;20214;-79
2023/11/30 05:48:30;;;;;;;20.20;10.83;;;-3.20;99.90;;;;;;5069225;28;20225;-78
2023/11/30 05:50:57;;;;;;;18.20;9.97;;;-3.20;99.90;;;;;;5068261;28;20209;-78
2023/11/30 05:53:24;;;;;;;17.87;10.07;;;-3.10;99.90;;;;;;5070605;28;20207;-79
2023/11/30 05:55:51;;;;;;;22.00;11.27;;;-2.90;99.90;;;;;;5076571;28;20211;-79
2023/11/30 05:58:17;;;;;;;17.47;10.13;;;-2.60;99.90;;;;;;5079686;28;20591;-79
2023/11/30 06:00:44;;;;;;;17.67;10.33;;;-2.70;99.90;;;;;;5077280;28;20206;-78
2023/11/30 06:03:11;;;;;;;17.93;10.37;;;-2.50;99.90;;;;;;5072785;28;20194;-79
2023/11/30 06:05:39;;;;;;;20.03;11.43;;;-2.70;99.90;;;;;;5075045;28;20233;-79
2023/11/30 06:08:06;;;;;;;18.63;10.80;;;-2.80;99.90;;;;;;5074725;28;20230;-79
2023/11/30 06:10:33;;;;;;;18.17;10.17;;;-2.70;99.90;;;;;;5075343;28;20203;-79
2023/11/30 06:12:59;;;;;;;18.87;10.20;;;-2.60;99.90;;;;;;5073005;28;20210;-78
2023/11/30 06:15:26;;;;;;;19.17;10.30;;;-2.50;99.90;;;;;;5076421;28;20213;-79
2023/11/30 06:17:53;;;;;;;17.97;10.40;;;-2.40;99.90;;;;;;5074024;28;20251;-79
2023/11/30 06:20:20;;;;;;;18.23;10.63;;;-2.30;99.90;;;;;;5070124;28;20286;-79
2023/11/30 06:22:48;;;;;;;19.77;11.20;;;-2.10;99.90;;;;;;5072580;28;20205;-79
2023/11/30 06:25:15;;;;;;;21.77;11.10;;;-2.00;99.90;;;;;;5068692;28;20221;-79
2023/11/30 06:27:42;;;;;;;18.37;10.67;;;-2.00;99.90;;;;;;5071213;28;20222;-79
2023/11/30 06:30:09;;;;;;;19.00;11.07;;;-2.00;99.90;;;;;;5073979;28;20204;-78
2023/11/30 06:32:36;;;;;;;18.87;10.60;;;-1.90;99.90;;;;;;5073914;28;20212;-78
2023/11/30 06:35:03;;;;;;;20.87;11.00;;;-1.80;99.90;;;;;;5072909;28;20658;-79
2023/11/30 06:37:30;;;;;;;19.40;10.63;;;-1.70;99.90;;;;;;5070709;28;20206;-79
2023/11/30 06:39:58;;;;;;;19.43;10.77;;;-1.70;99.90;;;;;;5071153;28;20217;-79
2023/11/30 06:42:25;;;;;;;17.70;10.47;;;-1.70;99.90;;;;;;5073185;28;20270;-78
2023/11/30 06:44:52;;;;;;;18.97;10.10;;;-1.70;99.90;;;;;;5072231;28;20312;-79
2023/11/30 06:47:19;;;;;;;21.93;11.20;;;-1.80;99.90;;;;;;5073006;28;20707;-79
2023/11/30 06:49:47;;;;;;;20.67;11.80;;;-1.80;99.90;;;;;;5068206;28;20855;-79
2023/11/30 06:52:14;;;;;;;25.03;11.57;;;-1.70;99.90;;;;;;5073053;28;20333;-79
2023/11/30 06:54:40;;;;;;;19.43;10.87;;;-1.70;99.90;;;;;;5068460;28;20209;-79
2023/11/30 06:57:09;;;;;;;18.73;10.10;;;-1.80;99.90;;;;;;5069784;28;20552;-80
2023/11/30 06:59:36;;;;;;;21.23;11.43;;;-1.90;99.90;;;;;;5076217;28;20226;-78
2023/11/30 07:02:03;;;;;;;23.10;10.70;;;-1.90;58.80;;;;;;5073185;28;20212;-79
2023/11/30 07:04:30;;;;;;;20.70;10.67;;;-1.80;99.90;;;;;;5073483;28;20636;-79
2023/11/30 07:06:56;;;;;;;21.27;11.87;;;-1.80;99.90;;;;;;5069462;28;20270;-79
2023/11/30 07:09:23;;;;;;;18.90;10.17;;;-1.80;99.90;;;;;;5067881;28;20227;-79
2023/11/30 07:11:50;;;;;;;20.57;11.37;;;-1.60;99.90;;;;;;5073722;28;20206;-79
2023/11/30 07:14:18;;;;;;;23.37;11.27;;;-1.60;99.90;;;;;;5075591;28;20229;-79
2023/11/30 07:16:45;;;;;;;21.10;11.27;;;-1.50;99.90;;;;;;5069417;28;20203;-79
2023/11/30 07:19:13;;;;;;;21.00;10.40;;;-1.50;99.90;;;;;;5072585;28;20224;-78
2023/11/30 07:21:40;;;;;;;22.10;11.33;;;-1.40;99.90;;;;;;5067036;28;20294;-79
2023/11/30 07:24:09;;;;;;;20.00;10.57;;;-1.30;99.90;;;;;;5074211;28;20567;-78
2023/11/30 07:26:36;;;;;;;20.20;11.13;;;-1.30;99.90;;;;;;5065360;28;20596;-79
2023/11/30 07:29:04;;;;;;;19.07;10.37;;;-1.20;99.90;;;;;;5064542;28;20219;-79
2023/11/30 07:31:33;;;;;;;22.17;12.40;;;-1.10;99.90;;;;;;5074167;28;20206;-78
2023/11/30 07:34:00;;;;;;;22.30;11.40;;;-1.00;99.90;;;;;;5070335;28;20206;-78
2023/11/30 07:36:28;;;;;;;24.10;10.60;;;-1.00;99.90;;;;;;5071554;28;20214;-79
2023/11/30 07:38:55;;;;;;;21.53;11.87;;;-1.00;99.90;;;;;;5070396;28;20214;-80
2023/11/30 07:41:22;;;;;;;23.77;11.63;;;-1.00;99.90;;;;;;5070507;28;20317;-79
2023/11/30 07:43:49;;;;;;;22.57;12.27;;;-1.00;99.90;;;;;;5071115;28;20274;-78
2023/11/30 07:46:16;;;;;;;18.80;11.20;;;-1.00;99.90;;;;;;5069950;28;20207;-78
2023/11/30 07:48:45;;;;;;;21.47;10.83;;;-1.10;99.90;;;;;;5065345;28;20222;-78
2023/11/30 07:51:12;;;;;;;20.27;11.20;;;-1.10;99.90;;;;;;5074226;28;20198;-78
2023/11/30 07:53:39;;;;;;;22.57;11.40;;;-1.00;99.90;;;;;;5069827;28;20297;-78
2023/11/30 07:56:07;;;;;;;23.07;12.13;;;-0.90;99.90;;;;;;5069147;28;20206;-77
2023/11/30 07:58:33;;;;;;;25.03;12.83;;;-0.90;99.90;;;;;;5064040;28;20214;-78
2023/11/30 08:01:00;;;;;;;25.03;11.00;;;-0.60;99.90;;;;;;5072557;28;20293;-80
2023/11/30 08:03:29;;;;;;;24.03;12.23;;;-0.90;96.70;;;;;;5073254;28;20206;-78
2023/11/30 08:05:57;;;;;;;22.87;11.97;;;-0.80;99.90;;;;;;5073698;28;20661;-78
2023/11/30 08:08:24;;;;;;;20.50;9.83;;;-0.80;70.60;;;;;;5073923;28;20266;-78
2023/11/30 08:10:51;;;;;;;25.13;11.30;;;-0.80;45.30;;;;;;5073816;28;20205;-78
2023/11/30 08:13:19;;;;;;;21.43;11.40;;;-0.80;1.00;;;;;;5073430;28;20211;-79
2023/11/30 08:15:46;;;;;;;21.43;10.13;;;-0.80;1.00;;;;;;5073860;28;20206;-78
2023/11/30 08:18:14;;;;;;;19.27;9.03;;;-0.80;1.00;;;;;;5071129;28;20215;-78
2023/11/30 08:20:41;;;;;;;19.33;9.50;;;-0.80;1.00;;;;;;5072108;28;20210;-79
2023/11/30 08:23:10;;;;;;;23.30;10.67;;;-0.80;1.00;;;;;;5067410;28;20217;-78
2023/11/30 08:25:37;;;;;;;20.67;10.83;;;-0.70;1.00;;;;;;5073776;28;20294;-79
2023/11/30 08:28:04;;;;;;;21.60;11.27;;;-0.50;1.00;;;;;;5071270;28;20233;-78
2023/11/30 08:30:31;;;;;;;24.00;10.70;;;-0.50;1.00;;;;;;5072751;28;20256;-80
2023/11/30 08:32:58;;;;;;;24.17;10.33;;;-0.60;99.90;;;;;;5076465;28;20270;-78
2023/11/30 08:35:25;;;;;;;22.73;10.03;;;-0.70;1.00;;;;;;5075984;28;20206;-78
2023/11/30 08:37:52;;;;;;;22.17;12.00;;;-0.70;1.00;;;;;;5075187;28;20252;-78
2023/11/30 08:40:21;;;;;;;21.33;11.33;;;-0.70;99.90;;;;;;5072319;28;20214;-78
2023/11/30 08:42:49;;;;;;;20.70;11.13;;;-0.70;99.90;;;;;;5071540;28;20206;-79
2023/11/30 08:45:16;;;;;;;21.23;11.67;;;-0.60;99.90;;;;;;5073744;28;20234;-79
2023/11/30 08:47:43;;;;;;;21.13;9.87;;;-0.60;1.00;;;;;;5072174;28;20260;-79
2023/11/30 08:50:10;;;;;;;20.13;9.70;;;-0.60;13.50;;;;;;5066558;28;20209;-80
2023/11/30 08:52:41;;;;;;;19.30;10.03;;;-0.50;90.10;;;;;;5074602;28;20214;-79
2023/11/30 08:55:09;;;;;;;21.63;11.50;;;-0.60;1.00;;;;;;5073331;28;20199;-79
2023/11/30 08:57:39;;;;;;;24.60;13.20;;;-0.60;1.00;;;;;;5075650;28;20629;-79
2023/11/30 09:00:10;;;;;;;22.23;11.57;;;-0.70;99.90;;;;;;5070058;28;20256;-79
2023/11/30 09:02:38;;;;;;;24.67;13.23;;;-0.90;99.90;;;;;;5074579;28;20214;-79
2023/11/30 09:05:07;;;;;;;23.00;11.33;;;-0.80;1.00;;;;;;5072788;28;20199;-78
2023/11/30 09:07:34;;;;;;;23.13;12.57;;;-0.70;1.00;;;;;;5078087;28;20209;-79
2023/11/30 09:10:05;;;;;;;22.50;12.53;;;-0.70;1.00;;;;;;5076544;28;20228;-78
2023/11/30 09:12:32;;;;;;;24.30;13.20;;;-0.70;1.00;;;;;;5075698;28;20210;-78
2023/11/30 09:15:01;;;;;;;23.73;11.50;;;-0.80;99.90;;;;;;5075258;28;20968;-79
2023/11/30 09:17:29;;;;;;;22.43;12.50;;;-0.80;1.00;;;;;;5076733;28;20717;-80
2023/11/30 09:19:56;;;;;;;21.40;12.20;;;-0.80;1.00;;;;;;5070913;28;20226;-80
2023/11/30 09:22:23;;;;;;;22.57;12.70;;;-0.90;1.00;;;;;;5066960;28;20203;-80
2023/11/30 09:24:50;;;;;;;27.30;13.37;;;-1.10;1.00;;;;;;5075775;28;20198;-80
2023/11/30 09:27:17;;;;;;;24.03;13.03;;;-1.20;1.00;;;;;;5071786;28;20206;-77
2023/11/30 09:29:44;;;;;;;25.20;14.10;;;-1.10;1.00;;;;;;5072844;28;20236;-79
2023/11/30 09:32:12;;;;;;;24.80;13.90;;;-0.70;1.00;;;;;;5074551;28;20226;-80
2023/11/30 09:34:39;;;;;;;23.37;12.97;;;-0.50;1.00;;;;;;5071628;28;20207;-80
2023/11/30 09:37:06;;;;;;;26.67;14.47;;;-0.40;99.90;;;;;;5074385;28;20293;-80
2023/11/30 09:39:33;;;;;;;24.73;13.80;;;-0.40;99.90;;;;;;5072156;28;20693;-79
2023/11/30 09:42:00;;;;;;;25.07;13.03;;;-0.30;99.90;;;;;;5071572;28;20601;-78
2023/11/30 09:44:28;;;;;;;26.00;14.30;;;-0.40;1.00;;;;;;5070712;28;20232;-80
2023/11/30 09:46:54;;;;;;;25.40;13.17;;;-0.30;1.00;;;;;;5067773;28;20680;-80
2023/11/30 09:49:23;;;;;;;25.60;12.47;;;-0.10;1.00;;;;;;5070932;28;20234;-79
2023/11/30 09:51:52;;;;;;;24.93;12.90;;;0.00;1.00;;;;;;5071481;28;20213;-80
2023/11/30 09:54:21;;;;;;;26.07;12.50;;;0.00;99.90;;;;;;5071276;28;20234;-80
2023/11/30 09:56:48;;;;;;;25.10;12.17;;;0.00;1.00;;;;;;5073388;28;20263;-79
2023/11/30 09:59:15;;;;;;;25.10;14.33;;;0.20;1.00;;;;;;5068895;28;20217;-79
2023/11/30 10:01:43;;;;;;;25.10;12.43;;;0.20;1.00;;;;;;5069921;28;20203;-80
2023/11/30 10:04:14;;;;;;;26.30;13.40;;;0.50;1.00;;;;;;5071043;28;20202;-79
2023/11/30 10:06:42;;;;;;;24.60;13.57;;;0.70;1.00;;;;;;5075297;28;20249;-79
2023/11/30 10:09:12;;;;;;;28.20;14.93;;;0.90;99.90;;;;;;5069461;28;20607;-79
2023/11/30 10:11:39;;;;;;;29.03;14.77;;;1.10;99.90;;;;;;5071424;28;20487;-79
2023/11/30 10:14:06;;;;;;;28.43;14.40;;;1.20;1.00;;;;;;5072183;28;20213;-80
2023/11/30 10:16:33;;;;;;;27.23;14.17;;;1.30;1.00;;;;;;5074627;28;20210;-81
2023/11/30 10:18:59;;;;;;;24.73;13.10;;;1.30;1.00;;;;;;5073488;28;20226;-80
2023/11/30 10:21:26;;;;;;;25.43;13.33;;;1.20;99.90;;;;;;5072817;28;20342;-80
2023/11/30 10:23:56;;;;;;;29.53;14.63;;;1.10;1.00;;;;;;5074777;28;20213;-80
2023/11/30 10:26:24;;;;;;;29.07;14.97;;;1.20;1.00;;;;;;5073556;28;20202;-80
2023/11/30 10:28:53;;;;;;;27.03;14.10;;;1.10;99.90;;;;;;5074419;28;20249;-80
2023/11/30 10:31:21;;;;;;;25.97;13.53;;;1.10;99.90;;;;;;5072505;28;20488;-80
2023/11/30 10:33:52;;;;;;;26.60;12.87;;;0.90;1.00;;;;;;5075639;28;20202;-80
2023/11/30 10:36:19;;;;;;;27.30;15.33;;;0.80;1.00;;;;;;5074125;28;20207;-80
2023/11/30 10:38:51;;;;;;;24.30;12.23;;;0.90;1.00;;;;;;5074455;28;20461;-81
2023/11/30 10:41:27;;;;;;;25.23;13.70;;;0.80;1.00;;;;;;5070004;28;20229;-79
2023/11/30 10:43:58;;;;;;;30.37;14.83;;;0.70;1.00;;;;;;5072870;28;20296;-79
2023/11/30 10:46:26;;;;;;;24.30;12.57;;;0.70;1.00;;;;;;5069187;28;20252;-79
2023/11/30 10:48:54;;;;;;;26.97;14.23;;;0.80;1.00;;;;;;5070893;28;20230;-79
2023/11/30 10:51:22;;;;;;;26.53;15.00;;;0.80;1.00;;;;;;5071154;28;20876;-79
2023/11/30 10:53:58;;;;;;;30.03;16.40;;;0.80;1.00;;;;;;5069060;28;20202;-79
2023/11/30 10:56:26;;;;;;;29.70;15.33;;;0.90;1.00;;;;;;5072379;28;20203;-79
2023/11/30 10:58:53;;;;;;;28.73;14.63;;;0.90;1.00;;;;;;5069716;28;20698;-79
2023/11/30 11:01:20;;;;;;;25.37;14.43;;;0.90;1.00;;;;;;5072783;28;20199;-79
2023/11/30 11:03:47;;;;;;;31.77;15.00;;;0.70;1.00;;;;;;5072893;28;20214;-80
2023/11/30 11:06:16;;;;;;;26.70;13.80;;;0.60;1.00;;;;;;5072489;28;20198;-79
2023/11/30 11:08:59;;;;;;;26.73;15.03;;;0.60;1.00;;;;;;5071575;28;20236;-79
2023/11/30 11:11:30;;;;;;;27.40;15.77;;;0.40;1.00;;;;;;5072353;28;20206;-79
2023/11/30 11:13:57;;;;;;;29.50;17.10;;;0.30;1.00;;;;;;5072981;28;20210;-79
2023/11/30 11:16:34;;;;;;;27.00;14.40;;;0.40;1.00;;;;;;5071811;28;20647;-80
2023/11/30 11:19:04;;;;;;;28.83;16.20;;;0.40;1.00;;;;;;5072690;28;20226;-80
2023/11/30 11:21:36;;;;;;;32.33;16.80;;;0.50;1.00;;;;;;5070883;28;20248;-80
2023/11/30 11:24:04;;;;;;;31.53;18.73;;;0.50;1.00;;;;;;5069911;28;20205;-80
2023/11/30 11:26:46;;;;;;;29.60;16.60;;;0.70;1.00;;;;;;5066080;28;20286;-80
2023/11/30 11:29:14;;;;;;;28.13;16.80;;;0.90;1.00;;;;;;5070942;28;20252;-80
2023/11/30 11:31:42;;;;;;;31.00;17.83;;;0.90;99.90;;;;;;5069580;28;20198;-79
2023/11/30 11:34:09;;;;;;;27.30;15.53;;;1.00;99.90;;;;;;5070922;28;20229;-80
2023/11/30 11:36:37;;;;;;;28.57;16.73;;;1.00;99.90;;;;;;5070775;28;20217;-79
2023/11/30 11:39:04;;;;;;;25.97;14.27;;;1.00;99.90;;;;;;5069174;28;20249;-79
2023/11/30 11:41:33;;;;;;;26.00;15.40;;;1.00;99.90;;;;;;5068213;28;20669;-78
2023/11/30 11:44:01;;;;;;;27.40;14.27;;;0.80;99.90;;;;;;5071397;28;20204;-79
2023/11/30 11:46:29;;;;;;;28.87;14.37;;;0.90;1.00;;;;;;5070773;28;20277;-79
2023/11/30 11:48:56;;;;;;;30.20;17.00;;;1.20;15.00;;;;;;5071900;28;20316;-79
2023/11/30 11:51:26;;;;;;;31.53;18.00;;;1.60;1.00;;;;;;5071900;28;20199;-79
2023/11/30 11:53:53;;;;;;;30.17;17.00;;;1.50;1.00;;;;;;5071954;28;20294;-79
2023/11/30 11:56:20;;;;;;;28.20;15.03;;;1.30;1.00;;;;;;5071061;28;20202;-79
2023/11/30 11:58:47;;;;;;;32.80;15.80;;;1.20;1.00;;;;;;5072935;28;20222;-79
2023/11/30 12:01:15;;;;;;;31.90;15.40;;;1.20;1.00;;;;;;5074805;28;20203;-79
2023/11/30 12:03:47;;;;;;;27.90;15.30;;;1.10;1.00;;;;;;5073676;28;20263;-79
2023/11/30 12:06:14;;;;;;;32.90;15.90;;;1.10;1.00;;;;;;5070549;28;20267;-79
2023/11/30 12:08:42;;;;;;;31.53;16.20;;;1.20;1.00;;;;;;5074542;28;20249;-80
2023/11/30 12:11:10;;;;;;;30.53;15.63;;;1.20;1.00;;;;;;5065067;28;20225;-79
2023/11/30 12:13:38;;;;;;;29.00;15.20;;;1.30;1.00;;;;;;5074895;28;20272;-80
2023/11/30 12:16:05;;;;;;;30.00;15.60;;;1.10;1.00;;;;;;5073358;28;20239;-80
2023/11/30 12:18:34;;;;;;;28.63;15.13;;;1.00;1.00;;;;;;5068464;28;20226;-79
2023/11/30 12:21:00;;;;;;;28.10;15.20;;;0.90;1.00;;;;;;5076125;28;20645;-78
2023/11/30 12:23:27;;;;;;;29.47;14.37;;;0.80;1.00;;;;;;5072056;28;20836;-79
2023/11/30 12:25:54;;;;;;;26.97;14.17;;;0.70;99.90;;;;;;5069839;28;20255;-79
2023/11/30 12:28:21;;;;;;;26.90;13.23;;;1.00;99.90;;;;;;5073746;28;20222;-79
2023/11/30 12:30:47;;;;;;;29.87;15.50;;;1.20;1.00;;;;;;5074135;28;20230;-79
2023/11/30 12:33:15;;;;;;;27.10;13.50;;;1.40;1.00;;;;;;5073221;28;20289;-79
2023/11/30 12:35:43;;;;;;;29.40;14.47;;;1.40;1.00;;;;;;5074178;28;20202;-78
2023/11/30 12:38:10;;;;;;;25.73;13.60;;;1.60;1.00;;;;;;5072136;28;20214;-78